createdAt,value
2022-08-11T00:01:05.249Z,26.92
2022-08-11T00:03:42.559Z,27.01
2022-08-11T00:06:11.380Z,26.93
2022-08-11T00:08:38.623Z,26.69
2022-08-11T00:11:09.158Z,26.67
2022-08-11T00:13:38.781Z,26.92
2022-08-11T00:16:20.699Z,26.71
2022-08-11T00:18:53.351Z,27.04
2022-08-11T00:21:54.664Z,27.07
2022-08-11T00:24:11.360Z,26.36
2022-08-11T00:26:38.002Z,26.66
2022-08-11T00:29:12.130Z,26.72
2022-08-11T00:31:43.811Z,25.94
2022-08-11T00:34:12.331Z,26.55
2022-08-11T00:36:47.652Z,25.98
2022-08-11T00:39:16.030Z,26.36
2022-08-11T00:42:06.852Z,25.88
2022-08-11T00:44:47.083Z,26.17
2022-08-11T00:47:27.771Z,26.34
2022-08-11T00:50:12.178Z,26.31
2022-08-11T00:53:05.858Z,25.87
2022-08-11T00:56:00.795Z,26.22
2022-08-11T00:58:42.393Z,26.17
2022-08-11T01:01:16.585Z,26.12
2022-08-11T01:04:14.100Z,26.12
2022-08-11T01:07:09.896Z,26.00
2022-08-11T01:09:52.368Z,25.88
2022-08-11T01:12:41.669Z,25.85
2022-08-11T01:15:27.158Z,25.75
2022-08-11T01:18:41.860Z,25.73
2022-08-11T01:21:49.715Z,25.67
2022-08-11T01:25:04.960Z,25.25
2022-08-11T01:27:56.242Z,25.59
2022-08-11T01:30:44.172Z,25.55
2022-08-11T01:33:53.949Z,25.23
2022-08-11T01:36:53.395Z,25.23
2022-08-11T01:39:31.300Z,24.54
2022-08-11T01:42:57.128Z,24.43
2022-08-11T01:45:32.068Z,25.23
2022-08-11T01:48:01.985Z,25.33
2022-08-11T01:50:38.922Z,25.28
2022-08-11T01:53:35.606Z,25.31
2022-08-11T01:56:26.462Z,25.15
2022-08-11T01:59:35.023Z,25.18
2022-08-11T02:02:42.694Z,25.14
2022-08-11T02:05:30.528Z,25.11
2022-08-11T02:08:05.696Z,24.86
2022-08-11T02:11:28.113Z,25.01
2022-08-11T02:13:56.458Z,24.96
2022-08-11T02:16:31.682Z,24.92
2022-08-11T02:19:24.859Z,24.26
2022-08-11T02:22:18.261Z,24.47
2022-08-11T02:25:31.277Z,24.66
2022-08-11T02:28:08.803Z,24.06
2022-08-11T02:30:42.735Z,24.27
2022-08-11T02:33:25.299Z,23.98
2022-08-11T02:35:56.606Z,24.28
2022-08-11T02:38:49.680Z,23.93
2022-08-11T02:42:32.376Z,24.11
2022-08-11T02:45:05.515Z,23.98
2022-08-11T02:48:03.789Z,23.94
2022-08-11T02:50:35.450Z,23.80
2022-08-11T02:53:07.352Z,23.51
2022-08-11T02:55:59.029Z,24.00
2022-08-11T02:59:26.530Z,23.95
2022-08-11T03:02:05.153Z,23.23
2022-08-11T03:04:58.314Z,23.24
2022-08-11T03:07:40.439Z,23.25
2022-08-11T03:10:19.064Z,23.78
2022-08-11T03:13:27.166Z,23.76
2022-08-11T03:16:45.531Z,23.84
2022-08-11T03:19:21.781Z,23.38
2022-08-11T03:22:08.247Z,24.07
2022-08-11T03:24:58.549Z,23.96
2022-08-11T03:27:50.466Z,23.87
2022-08-11T03:30:22.085Z,23.13
2022-08-11T03:33:26.065Z,23.63
2022-08-11T03:36:29.011Z,23.36
2022-08-11T03:39:10.547Z,23.21
2022-08-11T03:42:05.903Z,23.15
2022-08-11T03:45:14.761Z,23.26
2022-08-11T03:48:02.519Z,22.96
2022-08-11T03:50:54.816Z,22.30
2022-08-11T03:53:43.593Z,23.21
2022-08-11T03:56:38.738Z,22.86
2022-08-11T03:59:18.565Z,23.31
2022-08-11T04:02:00.051Z,23.33
2022-08-11T04:05:07.253Z,23.42
2022-08-11T04:07:55.508Z,23.39
2022-08-11T04:10:33.167Z,23.44
2022-08-11T04:13:47.510Z,23.36
2022-08-11T04:16:41.733Z,23.45
2022-08-11T04:19:47.413Z,23.35
2022-08-11T04:22:54.387Z,22.87
2022-08-11T04:25:57.843Z,23.06
2022-08-11T04:28:55.538Z,23.15
2022-08-11T04:31:51.800Z,22.72
2022-08-11T04:34:35.886Z,23.01
2022-08-11T04:37:34.214Z,22.98
2022-08-11T04:40:11.100Z,22.98
2022-08-11T04:43:20.882Z,22.99
2022-08-11T04:46:12.370Z,22.90
2022-08-11T04:49:33.313Z,22.88
2022-08-11T04:53:03.075Z,23.05
2022-08-11T04:56:10.063Z,23.13
2022-08-11T04:59:13.641Z,23.00
2022-08-11T05:02:04.909Z,22.79
2022-08-11T05:05:11.093Z,22.83
2022-08-11T05:08:25.353Z,22.92
2022-08-11T05:11:29.604Z,22.92
2022-08-11T05:14:45.395Z,22.81
2022-08-11T05:17:50.380Z,22.97
2022-08-11T05:20:35.906Z,22.67
2022-08-11T05:23:25.172Z,22.68
2022-08-11T05:26:46.107Z,22.74
2022-08-11T05:29:21.473Z,22.90
2022-08-11T05:32:26.626Z,22.67
2022-08-11T05:34:54.762Z,22.79
2022-08-11T05:37:33.946Z,22.85
2022-08-11T05:40:29.157Z,22.98
2022-08-11T05:43:18.018Z,22.85
2022-08-11T05:46:07.141Z,23.08
2022-08-11T05:48:55.602Z,22.92
2022-08-11T05:51:55.514Z,22.99
2022-08-11T05:54:48.442Z,23.07
2022-08-11T05:57:49.044Z,23.39
2022-08-11T06:00:14.506Z,23.45
2022-08-11T06:02:43.412Z,23.80
2022-08-11T06:05:11.533Z,23.77
2022-08-11T06:07:48.924Z,24.01
2022-08-11T06:10:38.531Z,24.55
2022-08-11T06:13:08.063Z,24.24
2022-08-11T06:15:47.608Z,24.72
2022-08-11T06:18:14.488Z,24.84
2022-08-11T06:20:47.777Z,25.14
2022-08-11T06:23:17.906Z,25.29
2022-08-11T06:25:45.407Z,24.86
2022-08-11T06:28:15.994Z,25.23
2022-08-11T06:30:48.852Z,25.49
2022-08-11T06:33:22.008Z,25.34
2022-08-11T06:36:03.360Z,25.48
2022-08-11T06:39:03.122Z,25.01
2022-08-11T06:41:53.363Z,25.54
2022-08-11T06:44:29.230Z,25.29
2022-08-11T06:47:04.382Z,25.70
2022-08-11T06:49:56.373Z,25.80
2022-08-11T06:52:35.117Z,25.98
2022-08-11T06:55:57.257Z,25.93
2022-08-11T06:58:47.711Z,26.08
2022-08-11T07:01:22.834Z,26.08
2022-08-11T07:04:00.786Z,26.21
2022-08-11T07:06:51.157Z,26.16
2022-08-11T07:10:08.749Z,26.32
2022-08-11T07:13:01.468Z,26.42
2022-08-11T07:16:12.315Z,26.40
2022-08-11T07:18:52.316Z,26.39
2022-08-11T07:22:01.010Z,26.03
2022-08-11T07:24:59.274Z,26.40
2022-08-11T07:28:00.899Z,26.67
2022-08-11T07:30:32.292Z,26.66
2022-08-11T07:33:03.102Z,26.73
2022-08-11T07:35:45.733Z,26.68
2022-08-11T07:38:22.926Z,26.22
2022-08-11T07:40:52.450Z,26.82
2022-08-11T07:43:19.271Z,26.85
2022-08-11T07:46:05.253Z,27.14
2022-08-11T07:48:53.004Z,26.90
2022-08-11T07:51:39.446Z,27.22
2022-08-11T07:54:16.205Z,27.29
2022-08-11T07:57:07.135Z,27.13
2022-08-11T08:00:03.974Z,27.23
2022-08-11T08:02:50.239Z,27.41
2022-08-11T08:05:37.633Z,27.53
2022-08-11T08:08:24.025Z,27.51
2022-08-11T08:11:10.208Z,27.57
2022-08-11T08:13:55.969Z,27.67
2022-08-11T08:16:41.382Z,27.73
2022-08-11T08:19:11.529Z,27.94
2022-08-11T08:21:39.263Z,27.95
2022-08-11T08:24:07.489Z,27.75
2022-08-11T08:26:53.479Z,28.24
2022-08-11T08:29:39.459Z,28.34
2022-08-11T08:32:08.038Z,28.30
2022-08-11T08:34:36.884Z,28.40
2022-08-11T08:37:16.199Z,28.17
2022-08-11T08:39:53.571Z,28.80
2022-08-11T08:42:26.326Z,28.87
2022-08-11T08:45:06.074Z,28.89
2022-08-11T08:47:41.973Z,29.13
2022-08-11T08:50:16.603Z,28.72
2022-08-11T08:52:50.996Z,29.41
2022-08-11T08:55:18.668Z,29.53
2022-08-11T08:57:48.362Z,29.03
2022-08-11T09:00:19.437Z,29.09
2022-08-11T09:02:50.171Z,29.65
2022-08-11T09:05:21.159Z,29.90
2022-08-11T09:07:51.137Z,29.72
2022-08-11T09:10:20.323Z,30.16
2022-08-11T09:12:48.224Z,30.17
2022-08-11T09:15:19.776Z,30.17
2022-08-11T09:18:03.620Z,30.32
2022-08-11T09:20:34.743Z,30.28
2022-08-11T09:26:30.801Z,30.67
2022-08-11T09:28:59.111Z,30.92
2022-08-11T09:31:26.765Z,30.96
2022-08-11T09:33:55.111Z,31.02
2022-08-11T09:36:40.667Z,31.29
2022-08-11T09:39:26.685Z,31.23
2022-08-11T09:42:00.833Z,31.40
2022-08-11T09:44:48.563Z,31.55
2022-08-11T09:47:28.248Z,31.59
2022-08-11T09:50:02.580Z,31.72
2022-08-11T09:52:32.111Z,31.91
2022-08-11T09:54:59.599Z,31.86
2022-08-11T09:57:44.991Z,31.53
2022-08-11T10:00:14.483Z,32.05
2022-08-11T10:02:47.191Z,31.80
2022-08-11T10:05:37.807Z,31.67
2022-08-11T10:08:29.070Z,32.23
2022-08-11T10:10:57.709Z,32.28
2022-08-11T10:14:32.080Z,32.08
2022-08-11T10:16:26.868Z,32.41
2022-08-11T10:18:56.034Z,32.74
2022-08-11T10:21:33.118Z,32.69
2022-08-11T10:24:19.381Z,32.77
2022-08-11T10:26:55.007Z,32.98
2022-08-11T10:29:51.144Z,33.04
2022-08-11T10:32:58.307Z,32.83
2022-08-11T10:35:28.207Z,32.99
2022-08-11T10:38:08.654Z,32.93
2022-08-11T10:40:39.583Z,33.33
2022-08-11T10:43:13.359Z,33.48
2022-08-11T10:46:03.857Z,33.64
2022-08-11T10:48:35.985Z,33.65
2022-08-11T10:51:48.067Z,33.73
2022-08-11T10:54:24.240Z,33.76
2022-08-11T10:57:11.588Z,33.95
2022-08-11T10:59:38.590Z,34.08
2022-08-11T11:02:05.739Z,34.20
2022-08-11T11:04:59.150Z,34.43
2022-08-11T11:07:44.217Z,34.31
2022-08-11T11:10:11.494Z,34.52
2022-08-11T11:13:05.486Z,34.78
2022-08-11T11:15:54.350Z,34.88
2022-08-11T11:18:29.723Z,34.99
2022-08-11T11:21:00.204Z,35.00
2022-08-11T11:23:41.974Z,35.79
2022-08-11T11:26:28.039Z,36.19
2022-08-11T11:29:20.367Z,36.44
2022-08-11T11:32:30.842Z,36.24
2022-08-11T11:35:15.940Z,35.97
2022-08-11T11:38:03.722Z,35.79
2022-08-11T11:40:32.307Z,35.84
2022-08-11T11:42:59.769Z,35.85
2022-08-11T11:45:26.444Z,35.85
2022-08-11T11:47:56.030Z,36.07
2022-08-11T11:50:32.849Z,36.03
2022-08-11T11:53:01.563Z,36.26
2022-08-11T11:55:29.454Z,36.31
2022-08-11T11:58:18.782Z,36.33
2022-08-11T12:01:06.060Z,36.15
2022-08-11T12:03:34.190Z,35.93
2022-08-11T12:06:02.429Z,36.07
2022-08-11T12:08:29.218Z,36.00
2022-08-11T12:11:17.935Z,36.27
2022-08-11T12:13:50.364Z,36.46
2022-08-11T12:16:34.024Z,36.44
2022-08-11T12:19:06.482Z,36.54
2022-08-11T12:21:35.954Z,36.44
2022-08-11T12:24:22.414Z,36.58
2022-08-11T12:27:15.213Z,36.32
2022-08-11T12:29:36.495Z,36.47
2022-08-11T12:32:08.392Z,36.74
2022-08-11T12:34:35.467Z,36.79
2022-08-11T12:37:05.776Z,36.95
2022-08-11T12:40:15.766Z,36.85
2022-08-11T12:43:04.067Z,37.04
2022-08-11T12:45:40.992Z,37.10
2022-08-11T12:49:00.001Z,37.05
2022-08-11T12:52:12.925Z,37.17
2022-08-11T12:54:46.419Z,37.32
2022-08-11T12:57:36.716Z,37.13
2022-08-11T13:00:24.800Z,37.08
2022-08-11T13:03:12.067Z,37.26
2022-08-11T13:05:44.600Z,37.38
2022-08-11T13:08:14.370Z,37.43
2022-08-11T13:11:00.356Z,37.55
2022-08-11T13:13:55.968Z,37.41
2022-08-11T13:16:15.009Z,37.43
2022-08-11T13:18:43.946Z,37.48
2022-08-11T13:21:20.700Z,37.63
2022-08-11T13:24:00.609Z,37.41
2022-08-11T13:26:46.862Z,37.26
2022-08-11T13:29:18.255Z,37.50
2022-08-11T13:31:45.938Z,37.64
2022-08-11T13:34:13.241Z,37.63
2022-08-11T13:36:40.769Z,37.60
2022-08-11T13:39:07.783Z,37.28
2022-08-11T13:41:41.726Z,37.52
2022-08-11T13:44:09.047Z,37.85
2022-08-11T13:46:37.075Z,37.72
2022-08-11T13:49:05.399Z,37.84
2022-08-11T13:51:35.782Z,37.91
2022-08-11T13:54:06.857Z,37.80
2022-08-11T13:56:35.783Z,37.76
2022-08-11T13:59:04.033Z,37.56
2022-08-11T14:02:03.540Z,37.45
2022-08-11T14:04:33.454Z,37.79
2022-08-11T14:07:05.110Z,37.90
2022-08-11T14:09:37.555Z,38.17
2022-08-11T14:12:31.680Z,37.89
2022-08-11T14:15:08.214Z,38.13
2022-08-11T14:17:48.778Z,38.24
2022-08-11T14:20:39.070Z,38.27
2022-08-11T14:23:05.932Z,38.18
2022-08-11T14:26:00.819Z,37.78
2022-08-11T14:28:31.652Z,38.18
2022-08-11T14:31:02.803Z,37.90
2022-08-11T14:33:38.150Z,38.20
2022-08-11T14:36:21.494Z,37.95
2022-08-11T14:38:48.937Z,37.94
2022-08-11T14:41:37.248Z,37.72
2022-08-11T14:44:44.340Z,38.19
2022-08-11T14:47:24.607Z,38.51
2022-08-11T14:50:05.038Z,38.55
2022-08-11T14:52:37.687Z,38.54
2022-08-11T14:55:24.003Z,38.35
2022-08-11T14:57:55.822Z,38.17
2022-08-11T15:00:23.986Z,38.34
2022-08-11T15:03:10.072Z,38.29
2022-08-11T15:05:40.349Z,38.49
2022-08-11T15:08:09.788Z,38.33
2022-08-11T15:10:37.251Z,38.10
2022-08-11T15:13:04.203Z,38.24
2022-08-11T15:15:52.264Z,38.62
2022-08-11T15:18:21.101Z,38.69
2022-08-11T15:21:06.521Z,38.47
2022-08-11T15:23:51.811Z,38.43
2022-08-11T15:26:56.998Z,38.70
2022-08-11T15:29:46.444Z,38.10
2022-08-11T15:32:33.879Z,38.39
2022-08-11T15:35:26.182Z,38.68
2022-08-11T15:38:02.777Z,38.57
2022-08-11T15:40:57.844Z,39.06
2022-08-11T15:44:07.145Z,39.09
2022-08-11T15:46:50.239Z,39.13
2022-08-11T15:50:10.927Z,39.05
2022-08-11T15:52:31.789Z,39.06
2022-08-11T15:55:02.222Z,39.11
2022-08-11T15:57:48.886Z,38.88
2022-08-11T16:00:35.113Z,39.23
2022-08-11T16:03:24.271Z,39.35
2022-08-11T16:06:13.329Z,39.27
2022-08-11T16:08:43.167Z,39.10
2022-08-11T16:11:12.467Z,39.11
2022-08-11T16:13:40.428Z,39.25
2022-08-11T16:16:16.494Z,39.11
2022-08-11T16:18:52.504Z,39.19
2022-08-11T16:21:33.933Z,38.93
2022-08-11T16:24:06.819Z,38.95
2022-08-11T16:27:11.775Z,38.98
2022-08-11T16:29:25.269Z,38.86
2022-08-11T16:32:13.549Z,38.97
2022-08-11T16:35:00.433Z,38.63
2022-08-11T16:37:48.305Z,38.60
2022-08-11T16:40:16.080Z,38.59
2022-08-11T16:43:10.936Z,38.41
2022-08-11T16:45:59.717Z,38.22
2022-08-11T16:48:35.974Z,38.08
2022-08-11T16:51:04.614Z,38.04
2022-08-11T16:53:54.659Z,37.95
2022-08-11T16:56:25.358Z,37.94
2022-08-11T16:59:13.584Z,37.84
2022-08-11T17:01:53.897Z,37.81
2022-08-11T17:04:51.243Z,37.80
2022-08-11T17:07:42.273Z,37.37
2022-08-11T17:10:50.457Z,37.44
2022-08-11T17:13:41.688Z,36.84
2022-08-11T17:16:12.801Z,37.31
2022-08-11T17:18:59.549Z,36.79
2022-08-11T17:22:03.809Z,36.93
2022-08-11T17:24:32.402Z,36.79
2022-08-11T17:27:00.671Z,36.40
2022-08-11T17:29:32.109Z,36.44
2022-08-11T17:32:20.989Z,35.81
2022-08-11T17:35:08.963Z,36.39
2022-08-11T17:37:37.306Z,36.62
2022-08-11T17:40:09.113Z,36.67
2022-08-11T17:42:56.142Z,36.37
2022-08-11T17:46:02.445Z,36.46
2022-08-11T17:48:31.524Z,36.42
2022-08-11T17:51:01.909Z,36.49
2022-08-11T17:54:02.216Z,36.29
2022-08-11T17:56:56.121Z,36.27
2022-08-11T17:59:48.854Z,36.15
2022-08-11T18:02:36.693Z,36.20
2022-08-11T18:05:12.234Z,36.06
2022-08-11T18:08:00.581Z,35.57
2022-08-11T18:10:48.124Z,35.77
2022-08-11T18:13:36.024Z,35.72
2022-08-11T18:16:21.492Z,35.96
2022-08-11T18:19:06.258Z,35.37
2022-08-11T18:22:08.262Z,35.71
2022-08-11T18:25:03.898Z,35.71
2022-08-11T18:27:52.101Z,35.67
2022-08-11T18:30:37.657Z,35.52
2022-08-11T18:33:50.381Z,35.72
2022-08-11T18:36:35.725Z,35.60
2022-08-11T18:39:21.989Z,35.53
2022-08-11T18:42:08.154Z,35.49
2022-08-11T18:44:55.876Z,35.32
2022-08-11T18:47:42.662Z,35.17
2022-08-11T18:50:38.713Z,34.98
2022-08-11T18:53:25.963Z,34.90
2022-08-11T18:56:11.654Z,34.77
2022-08-11T18:59:02.083Z,34.74
2022-08-11T19:01:55.198Z,34.60
2022-08-11T19:04:40.984Z,34.07
2022-08-11T19:07:28.370Z,34.43
2022-08-11T19:10:14.697Z,34.34
2022-08-11T19:13:01.644Z,34.27
2022-08-11T19:15:49.890Z,34.22
2022-08-11T19:18:39.821Z,34.11
2022-08-11T19:21:27.508Z,34.10
2022-08-11T19:24:16.909Z,33.92
2022-08-11T19:27:02.894Z,33.70
2022-08-11T19:30:07.590Z,33.59
2022-08-11T19:32:56.515Z,33.77
2022-08-11T19:35:42.775Z,33.61
2022-08-11T19:38:28.061Z,33.74
2022-08-11T19:41:16.031Z,33.72
2022-08-11T19:44:05.836Z,33.40
2022-08-11T19:46:52.042Z,33.42
2022-08-11T19:49:38.513Z,33.26
2022-08-11T19:52:24.431Z,32.96
2022-08-11T19:55:10.160Z,32.99
2022-08-11T19:57:58.011Z,32.78
2022-08-11T20:00:43.259Z,32.86
2022-08-11T20:03:30.646Z,32.76
2022-08-11T20:06:20.805Z,32.23
2022-08-11T20:09:08.631Z,32.30
2022-08-11T20:12:01.138Z,32.22
2022-08-11T20:14:50.647Z,32.33
2022-08-11T20:17:37.965Z,32.38
2022-08-11T20:20:25.849Z,32.41
2022-08-11T20:23:13.741Z,32.14
2022-08-11T20:26:14.230Z,32.36
2022-08-11T20:29:06.888Z,32.21
2022-08-11T20:31:52.046Z,32.18
2022-08-11T20:34:37.007Z,31.99
2022-08-11T20:37:24.721Z,32.04
2022-08-11T20:40:11.060Z,31.83
2022-08-11T20:42:57.485Z,31.84
2022-08-11T20:48:49.765Z,31.81
2022-08-11T20:54:43.799Z,31.55
2022-08-11T20:57:35.539Z,31.42
2022-08-11T21:00:40.594Z,31.48
2022-08-11T21:03:35.767Z,31.32
2022-08-11T21:06:26.211Z,31.22
2022-08-11T21:09:23.963Z,31.19
2022-08-11T21:12:29.643Z,31.13
2022-08-11T21:15:16.095Z,31.15
2022-08-11T21:18:28.360Z,30.94
2022-08-11T21:21:18.130Z,30.94
2022-08-11T21:24:05.452Z,30.93
2022-08-11T21:26:53.707Z,30.75
2022-08-11T21:29:41.875Z,30.85
2022-08-11T21:32:28.710Z,30.86
2022-08-11T21:35:15.573Z,30.80
2022-08-11T21:38:02.969Z,30.60
2022-08-11T21:40:53.360Z,30.83
2022-08-11T21:43:40.128Z,30.68
2022-08-11T21:46:28.019Z,30.76
2022-08-11T21:49:21.447Z,30.66
2022-08-11T21:52:06.082Z,30.69
2022-08-11T21:54:50.908Z,30.61
2022-08-11T21:57:36.726Z,30.49
2022-08-11T22:00:33.064Z,30.48
2022-08-11T22:03:18.678Z,30.43
2022-08-11T22:06:05.047Z,30.38
2022-08-11T22:08:49.921Z,30.32
2022-08-11T22:11:38.692Z,30.34
2022-08-11T22:14:23.987Z,30.29
2022-08-11T22:17:09.229Z,30.22
2022-08-11T22:19:57.841Z,30.22
2022-08-11T22:22:51.812Z,30.19
2022-08-11T22:25:39.119Z,30.19
2022-08-11T22:28:36.814Z,30.15
2022-08-11T22:31:23.003Z,30.01
2022-08-11T22:34:07.876Z,29.87
2022-08-11T22:36:53.819Z,29.71
2022-08-11T22:39:39.803Z,29.50
2022-08-11T22:42:33.221Z,29.34
2022-08-11T22:45:19.055Z,29.23
2022-08-11T22:48:05.842Z,29.03
2022-08-11T22:50:51.305Z,28.98
2022-08-11T22:53:54.930Z,28.92
2022-08-11T22:56:41.563Z,28.90
2022-08-11T22:59:26.830Z,28.90
2022-08-11T23:02:12.285Z,28.82
2022-08-11T23:04:58.610Z,28.79
2022-08-11T23:07:51.303Z,28.65
2022-08-11T23:10:37.473Z,28.54
2022-08-11T23:13:22.523Z,28.42
2022-08-11T23:16:07.984Z,28.34
2022-08-11T23:18:53.412Z,28.37
2022-08-11T23:21:38.716Z,28.27
2022-08-11T23:24:24.122Z,28.16
2022-08-11T23:27:08.988Z,28.00
2022-08-11T23:29:54.448Z,28.01
2022-08-11T23:32:41.772Z,28.04
2022-08-11T23:35:40.343Z,27.97
2022-08-11T23:38:32.271Z,27.83
2022-08-11T23:41:17.153Z,27.72
2022-08-11T23:44:02.848Z,27.66
2022-08-11T23:46:48.833Z,27.64
2022-08-11T23:49:34.622Z,27.66
2022-08-11T23:52:20.080Z,27.67
2022-08-11T23:55:04.777Z,27.50
2022-08-11T23:57:49.624Z,27.54
